sensor_id;sensor_type;location;lat;lon;timestamp;temperature;humidity
67586;SHT31;55785;47.946;20.540;2023-05-10T00:01:55;10.98;66.24
67586;SHT31;55785;47.946;20.540;2023-05-10T00:04:21;10.91;64.69
67586;SHT31;55785;47.946;20.540;2023-05-10T00:06:46;10.85;64.63
67586;SHT31;55785;47.946;20.540;2023-05-10T00:09:12;10.84;61.66
67586;SHT31;55785;47.946;20.540;2023-05-10T00:11:37;10.94;61.03
67586;SHT31;55785;47.946;20.540;2023-05-10T00:14:02;11.07;61.28
67586;SHT31;55785;47.946;20.540;2023-05-10T00:16:28;11.10;61.29
67586;SHT31;55785;47.946;20.540;2023-05-10T00:18:53;11.14;60.57
67586;SHT31;55785;47.946;20.540;2023-05-10T00:21:18;11.18;59.72
67586;SHT31;55785;47.946;20.540;2023-05-10T00:23:44;11.17;60.90
67586;SHT31;55785;47.946;20.540;2023-05-10T00:26:09;11.19;60.87
67586;SHT31;55785;47.946;20.540;2023-05-10T00:28:35;11.14;60.42
67586;SHT31;55785;47.946;20.540;2023-05-10T00:31:00;11.14;60.94
67586;SHT31;55785;47.946;20.540;2023-05-10T00:33:25;11.10;61.56
67586;SHT31;55785;47.946;20.540;2023-05-10T00:35:51;10.97;62.40
67586;SHT31;55785;47.946;20.540;2023-05-10T00:38:16;10.85;62.15
67586;SHT31;55785;47.946;20.540;2023-05-10T00:40:41;10.76;62.93
67586;SHT31;55785;47.946;20.540;2023-05-10T00:43:07;10.67;62.88
67586;SHT31;55785;47.946;20.540;2023-05-10T00:45:33;10.55;66.23
67586;SHT31;55785;47.946;20.540;2023-05-10T00:48:01;10.40;65.33
67586;SHT31;55785;47.946;20.540;2023-05-10T00:50:27;10.26;65.77
67586;SHT31;55785;47.946;20.540;2023-05-10T00:52:52;10.19;65.37
67586;SHT31;55785;47.946;20.540;2023-05-10T00:55:18;10.06;65.36
67586;SHT31;55785;47.946;20.540;2023-05-10T00:57:44;10.03;65.27
67586;SHT31;55785;47.946;20.540;2023-05-10T01:00:10;9.95;66.40
67586;SHT31;55785;47.946;20.540;2023-05-10T01:02:35;9.78;66.87
67586;SHT31;55785;47.946;20.540;2023-05-10T01:05:02;9.70;66.99
67586;SHT31;55785;47.946;20.540;2023-05-10T01:07:27;9.63;67.89
67586;SHT31;55785;47.946;20.540;2023-05-10T01:09:53;9.51;68.25
67586;SHT31;55785;47.946;20.540;2023-05-10T01:12:18;9.36;68.78
67586;SHT31;55785;47.946;20.540;2023-05-10T01:14:44;9.23;69.18
67586;SHT31;55785;47.946;20.540;2023-05-10T01:17:10;9.13;72.08
67586;SHT31;55785;47.946;20.540;2023-05-10T01:19:36;8.95;72.28
67586;SHT31;55785;47.946;20.540;2023-05-10T01:22:12;8.79;72.60
67586;SHT31;55785;47.946;20.540;2023-05-10T01:27:25;8.64;73.98
67586;SHT31;55785;47.946;20.540;2023-05-10T01:35:53;8.22;74.86
67586;SHT31;55785;47.946;20.540;2023-05-10T01:38:47;8.26;74.59
67586;SHT31;55785;47.946;20.540;2023-05-10T01:41:18;8.33;74.31
67586;SHT31;55785;47.946;20.540;2023-05-10T01:46:28;8.33;76.43
67586;SHT31;55785;47.946;20.540;2023-05-10T01:48:57;8.13;77.46
67586;SHT31;55785;47.946;20.540;2023-05-10T01:51:25;7.99;77.36
67586;SHT31;55785;47.946;20.540;2023-05-10T01:54:01;7.88;77.45
67586;SHT31;55785;47.946;20.540;2023-05-10T01:56:28;7.79;77.91
67586;SHT31;55785;47.946;20.540;2023-05-10T01:58:55;7.71;77.68
67586;SHT31;55785;47.946;20.540;2023-05-10T02:01:21;7.72;77.14
67586;SHT31;55785;47.946;20.540;2023-05-10T02:03:47;7.78;76.55
67586;SHT31;55785;47.946;20.540;2023-05-10T02:06:16;7.83;76.34
67586;SHT31;55785;47.946;20.540;2023-05-10T02:08:45;7.75;77.06
67586;SHT31;55785;47.946;20.540;2023-05-10T02:11:13;7.69;76.85
67586;SHT31;55785;47.946;20.540;2023-05-10T02:13:39;7.62;77.29
67586;SHT31;55785;47.946;20.540;2023-05-10T02:16:05;7.54;77.69
67586;SHT31;55785;47.946;20.540;2023-05-10T02:18:32;7.37;78.36
67586;SHT31;55785;47.946;20.540;2023-05-10T02:20:59;7.27;78.20
67586;SHT31;55785;47.946;20.540;2023-05-10T02:23:26;7.20;78.41
67586;SHT31;55785;47.946;20.540;2023-05-10T02:25:54;7.09;78.54
67586;SHT31;55785;47.946;20.540;2023-05-10T02:28:23;6.82;79.21
67586;SHT31;55785;47.946;20.540;2023-05-10T02:30:51;6.67;79.40
67586;SHT31;55785;47.946;20.540;2023-05-10T02:33:17;6.65;79.47
67586;SHT31;55785;47.946;20.540;2023-05-10T02:35:43;6.75;79.22
67586;SHT31;55785;47.946;20.540;2023-05-10T02:38:10;6.85;78.52
67586;SHT31;55785;47.946;20.540;2023-05-10T02:40:36;7.06;77.71
67586;SHT31;55785;47.946;20.540;2023-05-10T02:43:04;7.16;78.68
67586;SHT31;55785;47.946;20.540;2023-05-10T02:45:32;7.19;78.24
67586;SHT31;55785;47.946;20.540;2023-05-10T02:47:58;7.19;77.96
67586;SHT31;55785;47.946;20.540;2023-05-10T02:50:27;7.19;78.81
67586;SHT31;55785;47.946;20.540;2023-05-10T02:52:59;7.07;78.54
67586;SHT31;55785;47.946;20.540;2023-05-10T02:55:27;6.96;78.92
67586;SHT31;55785;47.946;20.540;2023-05-10T02:58:01;6.89;79.67
67586;SHT31;55785;47.946;20.540;2023-05-10T03:00:26;6.86;79.54
67586;SHT31;55785;47.946;20.540;2023-05-10T03:02:52;6.86;79.79
67586;SHT31;55785;47.946;20.540;2023-05-10T03:05:18;6.80;80.25
67586;SHT31;55785;47.946;20.540;2023-05-10T03:07:45;6.78;80.16
67586;SHT31;55785;47.946;20.540;2023-05-10T03:10:10;6.80;79.93
67586;SHT31;55785;47.946;20.540;2023-05-10T03:18:09;6.67;79.93
67586;SHT31;55785;47.946;20.540;2023-05-10T03:20:59;6.73;79.60
67586;SHT31;55785;47.946;20.540;2023-05-10T03:26:05;6.73;79.83
67586;SHT31;55785;47.946;20.540;2023-05-10T03:28:33;6.76;79.63
67586;SHT31;55785;47.946;20.540;2023-05-10T03:30:59;6.75;79.91
67586;SHT31;55785;47.946;20.540;2023-05-10T03:33:25;6.71;80.02
67586;SHT31;55785;47.946;20.540;2023-05-10T03:35:50;6.71;79.38
67586;SHT31;55785;47.946;20.540;2023-05-10T03:38:15;6.69;79.56
67586;SHT31;55785;47.946;20.540;2023-05-10T03:40:41;6.73;79.53
67586;SHT31;55785;47.946;20.540;2023-05-10T03:43:06;6.82;79.12
67586;SHT31;55785;47.946;20.540;2023-05-10T03:45:31;6.93;79.01
67586;SHT31;55785;47.946;20.540;2023-05-10T03:47:58;7.01;78.74
67586;SHT31;55785;47.946;20.540;2023-05-10T03:50:23;7.11;77.40
67586;SHT31;55785;47.946;20.540;2023-05-10T03:52:49;7.24;77.24
67586;SHT31;55785;47.946;20.540;2023-05-10T03:55:14;7.35;76.32
67586;SHT31;55785;47.946;20.540;2023-05-10T03:57:40;7.48;75.89
67586;SHT31;55785;47.946;20.540;2023-05-10T04:00:06;7.68;74.81
67586;SHT31;55785;47.946;20.540;2023-05-10T04:02:31;7.83;75.50
67586;SHT31;55785;47.946;20.540;2023-05-10T04:04:56;7.96;72.89
67586;SHT31;55785;47.946;20.540;2023-05-10T04:07:22;8.06;73.91
67586;SHT31;55785;47.946;20.540;2023-05-10T04:09:47;8.16;72.57
67586;SHT31;55785;47.946;20.540;2023-05-10T04:12:13;8.25;71.91
67586;SHT31;55785;47.946;20.540;2023-05-10T04:14:38;8.33;72.22
67586;SHT31;55785;47.946;20.540;2023-05-10T04:17:03;8.47;70.97
67586;SHT31;55785;47.946;20.540;2023-05-10T04:19:32;8.63;70.83
67586;SHT31;55785;47.946;20.540;2023-05-10T04:22:03;8.81;71.13
67586;SHT31;55785;47.946;20.540;2023-05-10T04:24:29;8.88;70.89
67586;SHT31;55785;47.946;20.540;2023-05-10T04:26:54;8.86;69.64
67586;SHT31;55785;47.946;20.540;2023-05-10T04:29:20;8.92;70.42
67586;SHT31;55785;47.946;20.540;2023-05-10T04:31:45;8.98;69.47
67586;SHT31;55785;47.946;20.540;2023-05-10T04:34:10;8.99;70.68
67586;SHT31;55785;47.946;20.540;2023-05-10T04:36:36;8.92;71.75
67586;SHT31;55785;47.946;20.540;2023-05-10T04:39:02;8.86;71.14
67586;SHT31;55785;47.946;20.540;2023-05-10T04:41:28;8.82;69.45
67586;SHT31;55785;47.946;20.540;2023-05-10T04:43:54;8.78;69.21
67586;SHT31;55785;47.946;20.540;2023-05-10T04:46:19;8.88;68.17
67586;SHT31;55785;47.946;20.540;2023-05-10T04:48:45;9.04;67.99
67586;SHT31;55785;47.946;20.540;2023-05-10T04:51:10;9.32;68.38
67586;SHT31;55785;47.946;20.540;2023-05-10T04:53:35;9.50;68.59
67586;SHT31;55785;47.946;20.540;2023-05-10T04:56:01;9.73;67.53
67586;SHT31;55785;47.946;20.540;2023-05-10T04:58:26;9.90;66.38
67586;SHT31;55785;47.946;20.540;2023-05-10T05:00:51;9.97;65.68
67586;SHT31;55785;47.946;20.540;2023-05-10T05:03:17;10.02;66.13
67586;SHT31;55785;47.946;20.540;2023-05-10T05:05:43;10.03;66.21
67586;SHT31;55785;47.946;20.540;2023-05-10T05:08:09;10.21;66.19
67586;SHT31;55785;47.946;20.540;2023-05-10T05:10:34;10.33;66.31
67586;SHT31;55785;47.946;20.540;2023-05-10T05:12:59;10.42;65.53
67586;SHT31;55785;47.946;20.540;2023-05-10T05:15:25;10.48;65.87
67586;SHT31;55785;47.946;20.540;2023-05-10T05:17:50;10.52;66.55
67586;SHT31;55785;47.946;20.540;2023-05-10T05:20:15;10.55;65.22
67586;SHT31;55785;47.946;20.540;2023-05-10T05:22:41;10.67;66.75
67586;SHT31;55785;47.946;20.540;2023-05-10T05:25:06;10.60;65.34
67586;SHT31;55785;47.946;20.540;2023-05-10T05:27:32;10.50;65.61
67586;SHT31;55785;47.946;20.540;2023-05-10T05:29:57;10.35;66.43
67586;SHT31;55785;47.946;20.540;2023-05-10T05:32:24;10.26;66.40
67586;SHT31;55785;47.946;20.540;2023-05-10T05:34:50;10.19;66.38
67586;SHT31;55785;47.946;20.540;2023-05-10T05:37:17;10.12;66.62
67586;SHT31;55785;47.946;20.540;2023-05-10T05:39:44;10.03;67.25
67586;SHT31;55785;47.946;20.540;2023-05-10T05:42:10;9.95;66.65
67586;SHT31;55785;47.946;20.540;2023-05-10T05:44:36;9.87;67.77
67586;SHT31;55785;47.946;20.540;2023-05-10T05:47:01;9.85;67.32
67586;SHT31;55785;47.946;20.540;2023-05-10T05:49:27;9.84;71.13
67586;SHT31;55785;47.946;20.540;2023-05-10T05:51:52;9.71;72.38
67586;SHT31;55785;47.946;20.540;2023-05-10T05:54:17;9.61;73.69
67586;SHT31;55785;47.946;20.540;2023-05-10T05:56:43;9.53;72.95
67586;SHT31;55785;47.946;20.540;2023-05-10T05:59:08;9.57;73.47
67586;SHT31;55785;47.946;20.540;2023-05-10T06:01:33;9.63;74.22
67586;SHT31;55785;47.946;20.540;2023-05-10T06:03:59;9.75;76.58
67586;SHT31;55785;47.946;20.540;2023-05-10T06:06:25;9.84;76.65
67586;SHT31;55785;47.946;20.540;2023-05-10T06:08:51;9.98;76.07
67586;SHT31;55785;47.946;20.540;2023-05-10T06:11:16;10.06;75.72
67586;SHT31;55785;47.946;20.540;2023-05-10T06:13:41;10.19;75.01
67586;SHT31;55785;47.946;20.540;2023-05-10T06:16:07;10.31;74.59
67586;SHT31;55785;47.946;20.540;2023-05-10T06:18:32;10.43;76.27
67586;SHT31;55785;47.946;20.540;2023-05-10T06:20:58;10.46;73.47
67586;SHT31;55785;47.946;20.540;2023-05-10T06:23:23;10.50;72.03
67586;SHT31;55785;47.946;20.540;2023-05-10T06:25:48;10.61;74.04
67586;SHT31;55785;47.946;20.540;2023-05-10T06:28:14;10.73;72.60
67586;SHT31;55785;47.946;20.540;2023-05-10T06:30:39;10.85;72.70
67586;SHT31;55785;47.946;20.540;2023-05-10T06:33:04;10.96;70.89
67586;SHT31;55785;47.946;20.540;2023-05-10T06:35:30;11.10;71.08
67586;SHT31;55785;47.946;20.540;2023-05-10T06:37:55;11.22;72.10
67586;SHT31;55785;47.946;20.540;2023-05-10T06:40:20;11.32;69.15
67586;SHT31;55785;47.946;20.540;2023-05-10T06:42:46;11.43;67.46
67586;SHT31;55785;47.946;20.540;2023-05-10T06:45:13;11.56;69.27
67586;SHT31;55785;47.946;20.540;2023-05-10T06:47:38;11.70;68.58
67586;SHT31;55785;47.946;20.540;2023-05-10T06:50:04;11.87;68.47
67586;SHT31;55785;47.946;20.540;2023-05-10T06:52:29;12.03;68.87
67586;SHT31;55785;47.946;20.540;2023-05-10T06:54:55;12.31;69.86
67586;SHT31;55785;47.946;20.540;2023-05-10T06:57:20;12.51;66.05
67586;SHT31;55785;47.946;20.540;2023-05-10T06:59:45;12.66;64.40
67586;SHT31;55785;47.946;20.540;2023-05-10T07:02:11;13.02;67.83
67586;SHT31;55785;47.946;20.540;2023-05-10T07:04:36;13.37;66.74
67586;SHT31;55785;47.946;20.540;2023-05-10T07:07:01;13.74;64.88
67586;SHT31;55785;47.946;20.540;2023-05-10T07:09:27;14.08;63.30
67586;SHT31;55785;47.946;20.540;2023-05-10T07:11:52;14.06;62.74
67586;SHT31;55785;47.946;20.540;2023-05-10T07:14:17;14.01;63.94
67586;SHT31;55785;47.946;20.540;2023-05-10T07:16:43;13.79;61.32
67586;SHT31;55785;47.946;20.540;2023-05-10T07:19:08;13.82;64.50
67586;SHT31;55785;47.946;20.540;2023-05-10T07:21:33;13.98;62.47
67586;SHT31;55785;47.946;20.540;2023-05-10T07:23:59;14.10;66.04
67586;SHT31;55785;47.946;20.540;2023-05-10T07:26:24;14.01;61.18
67586;SHT31;55785;47.946;20.540;2023-05-10T07:28:49;14.09;63.67
67586;SHT31;55785;47.946;20.540;2023-05-10T07:31:15;14.13;63.17
67586;SHT31;55785;47.946;20.540;2023-05-10T07:33:40;14.25;61.46
67586;SHT31;55785;47.946;20.540;2023-05-10T07:36:06;14.34;62.87
67586;SHT31;55785;47.946;20.540;2023-05-10T07:38:31;14.20;60.08
67586;SHT31;55785;47.946;20.540;2023-05-10T07:40:56;14.18;61.29
67586;SHT31;55785;47.946;20.540;2023-05-10T07:43:22;14.22;63.13
67586;SHT31;55785;47.946;20.540;2023-05-10T07:45:47;14.43;66.82
67586;SHT31;55785;47.946;20.540;2023-05-10T07:48:12;14.50;61.08
67586;SHT31;55785;47.946;20.540;2023-05-10T07:50:38;14.43;62.02
67586;SHT31;55785;47.946;20.540;2023-05-10T07:53:03;14.36;62.89
67586;SHT31;55785;47.946;20.540;2023-05-10T07:55:28;14.34;63.11
67586;SHT31;55785;47.946;20.540;2023-05-10T07:57:54;14.39;61.41
67586;SHT31;55785;47.946;20.540;2023-05-10T08:00:20;14.33;62.19
67586;SHT31;55785;47.946;20.540;2023-05-10T08:02:46;14.64;65.48
67586;SHT31;55785;47.946;20.540;2023-05-10T08:05:11;14.83;63.68
67586;SHT31;55785;47.946;20.540;2023-05-10T08:07:37;14.92;62.29
67586;SHT31;55785;47.946;20.540;2023-05-10T08:10:03;14.95;62.16
67586;SHT31;55785;47.946;20.540;2023-05-10T08:12:28;15.04;62.66
67586;SHT31;55785;47.946;20.540;2023-05-10T08:14:53;15.02;61.43
67586;SHT31;55785;47.946;20.540;2023-05-10T08:17:19;15.06;61.93
67586;SHT31;55785;47.946;20.540;2023-05-10T08:19:44;15.05;62.41
67586;SHT31;55785;47.946;20.540;2023-05-10T08:22:09;15.01;60.94
67586;SHT31;55785;47.946;20.540;2023-05-10T08:24:35;15.26;64.62
67586;SHT31;55785;47.946;20.540;2023-05-10T08:27:00;15.59;62.35
67586;SHT31;55785;47.946;20.540;2023-05-10T08:29:26;15.47;64.55
67586;SHT31;55785;47.946;20.540;2023-05-10T08:31:51;15.26;60.81
67586;SHT31;55785;47.946;20.540;2023-05-10T08:34:16;15.25;60.63
67586;SHT31;55785;47.946;20.540;2023-05-10T08:36:41;15.38;62.89
67586;SHT31;55785;47.946;20.540;2023-05-10T08:39:07;15.49;61.29
67586;SHT31;55785;47.946;20.540;2023-05-10T08:41:33;15.67;62.48
67586;SHT31;55785;47.946;20.540;2023-05-10T08:44:04;15.89;63.13
67586;SHT31;55785;47.946;20.540;2023-05-10T08:46:30;16.15;63.73
67586;SHT31;55785;47.946;20.540;2023-05-10T08:49:01;16.35;59.06
67586;SHT31;55785;47.946;20.540;2023-05-10T08:51:29;16.26;59.36
67586;SHT31;55785;47.946;20.540;2023-05-10T08:53:58;16.29;59.17
67586;SHT31;55785;47.946;20.540;2023-05-10T08:56:24;16.14;62.55
67586;SHT31;55785;47.946;20.540;2023-05-10T08:58:50;16.04;60.26
67586;SHT31;55785;47.946;20.540;2023-05-10T09:01:16;15.97;62.15
67586;SHT31;55785;47.946;20.540;2023-05-10T09:03:43;15.70;59.32
67586;SHT31;55785;47.946;20.540;2023-05-10T09:06:11;15.73;59.83
67586;SHT31;55785;47.946;20.540;2023-05-10T09:08:37;15.86;62.29
67586;SHT31;55785;47.946;20.540;2023-05-10T09:11:03;16.08;65.00
67586;SHT31;55785;47.946;20.540;2023-05-10T09:13:29;16.41;60.19
67586;SHT31;55785;47.946;20.540;2023-05-10T09:15:54;16.45;58.26
67586;SHT31;55785;47.946;20.540;2023-05-10T09:18:20;16.45;61.25
67586;SHT31;55785;47.946;20.540;2023-05-10T09:20:45;16.59;60.60
67586;SHT31;55785;47.946;20.540;2023-05-10T09:23:10;16.83;64.37
67586;SHT31;55785;47.946;20.540;2023-05-10T09:25:36;16.66;63.16
67586;SHT31;55785;47.946;20.540;2023-05-10T09:28:01;16.59;59.57
67586;SHT31;55785;47.946;20.540;2023-05-10T09:30:30;16.62;60.27
67586;SHT31;55785;47.946;20.540;2023-05-10T09:32:57;16.76;61.88
67586;SHT31;55785;47.946;20.540;2023-05-10T09:35:25;16.86;59.04
67586;SHT31;55785;47.946;20.540;2023-05-10T09:37:52;16.75;58.80
67586;SHT31;55785;47.946;20.540;2023-05-10T09:40:20;16.91;63.81
67586;SHT31;55785;47.946;20.540;2023-05-10T09:43:00;17.11;60.61
67586;SHT31;55785;47.946;20.540;2023-05-10T09:45:28;17.14;59.11
67586;SHT31;55785;47.946;20.540;2023-05-10T09:47:54;17.39;59.21
67586;SHT31;55785;47.946;20.540;2023-05-10T09:50:20;17.38;57.91
67586;SHT31;55785;47.946;20.540;2023-05-10T09:52:48;17.37;61.38
67586;SHT31;55785;47.946;20.540;2023-05-10T09:55:14;16.94;59.74
67586;SHT31;55785;47.946;20.540;2023-05-10T09:57:40;16.55;61.95
67586;SHT31;55785;47.946;20.540;2023-05-10T10:00:06;16.61;62.35
67586;SHT31;55785;47.946;20.540;2023-05-10T10:02:32;16.61;59.17
67586;SHT31;55785;47.946;20.540;2023-05-10T10:04:58;16.66;60.92
67586;SHT31;55785;47.946;20.540;2023-05-10T10:07:25;16.49;60.91
67586;SHT31;55785;47.946;20.540;2023-05-10T10:09:51;16.41;58.63
67586;SHT31;55785;47.946;20.540;2023-05-10T10:12:19;16.44;58.32
67586;SHT31;55785;47.946;20.540;2023-05-10T10:14:46;16.69;60.73
67586;SHT31;55785;47.946;20.540;2023-05-10T10:17:11;16.84;57.88
67586;SHT31;55785;47.946;20.540;2023-05-10T10:19:37;16.73;60.05
67586;SHT31;55785;47.946;20.540;2023-05-10T10:22:03;16.66;57.63
67586;SHT31;55785;47.946;20.540;2023-05-10T10:24:28;16.58;58.39
67586;SHT31;55785;47.946;20.540;2023-05-10T10:26:58;16.61;59.18
67586;SHT31;55785;47.946;20.540;2023-05-10T10:29:56;16.84;58.13
67586;SHT31;55785;47.946;20.540;2023-05-10T10:32:38;17.28;61.06
67586;SHT31;55785;47.946;20.540;2023-05-10T10:35:08;17.62;60.01
67586;SHT31;55785;47.946;20.540;2023-05-10T10:37:44;17.69;62.44
67586;SHT31;55785;47.946;20.540;2023-05-10T10:40:31;17.32;58.67
67586;SHT31;55785;47.946;20.540;2023-05-10T10:42:57;16.97;60.02
67586;SHT31;55785;47.946;20.540;2023-05-10T10:45:24;16.72;60.46
67586;SHT31;55785;47.946;20.540;2023-05-10T10:48:19;16.68;58.79
67586;SHT31;55785;47.946;20.540;2023-05-10T10:50:45;16.68;58.72
67586;SHT31;55785;47.946;20.540;2023-05-10T10:53:10;16.89;56.77
67586;SHT31;55785;47.946;20.540;2023-05-10T10:55:47;17.27;56.37
67586;SHT31;55785;47.946;20.540;2023-05-10T10:58:28;17.45;56.55
67586;SHT31;55785;47.946;20.540;2023-05-10T11:01:18;17.28;57.26
67586;SHT31;55785;47.946;20.540;2023-05-10T11:06:31;17.09;59.18
67586;SHT31;55785;47.946;20.540;2023-05-10T11:08:57;16.84;59.56
67586;SHT31;55785;47.946;20.540;2023-05-10T11:11:23;16.80;59.79
67586;SHT31;55785;47.946;20.540;2023-05-10T11:13:48;16.76;61.86
67586;SHT31;55785;47.946;20.540;2023-05-10T11:19:02;16.73;63.26
67586;SHT31;55785;47.946;20.540;2023-05-10T11:21:28;16.77;60.13
67586;SHT31;55785;47.946;20.540;2023-05-10T11:23:55;16.86;61.46
67586;SHT31;55785;47.946;20.540;2023-05-10T11:26:21;16.80;60.20
67586;SHT31;55785;47.946;20.540;2023-05-10T11:28:48;16.87;63.81
67586;SHT31;55785;47.946;20.540;2023-05-10T11:31:15;16.87;62.70
67586;SHT31;55785;47.946;20.540;2023-05-10T11:33:45;16.94;60.68
67586;SHT31;55785;47.946;20.540;2023-05-10T11:36:15;17.02;58.96
67586;SHT31;55785;47.946;20.540;2023-05-10T11:38:41;17.09;59.73
67586;SHT31;55785;47.946;20.540;2023-05-10T11:41:08;17.13;58.21
67586;SHT31;55785;47.946;20.540;2023-05-10T11:43:34;17.17;60.15
67586;SHT31;55785;47.946;20.540;2023-05-10T11:45:59;17.18;57.87
67586;SHT31;55785;47.946;20.540;2023-05-10T11:48:26;17.30;57.72
67586;SHT31;55785;47.946;20.540;2023-05-10T11:50:51;17.18;56.05
67586;SHT31;55785;47.946;20.540;2023-05-10T11:53:19;17.24;55.53
67586;SHT31;55785;47.946;20.540;2023-05-10T11:55:44;17.18;54.80
67586;SHT31;55785;47.946;20.540;2023-05-10T11:58:10;17.18;57.36
67586;SHT31;55785;47.946;20.540;2023-05-10T12:00:35;17.21;56.53
67586;SHT31;55785;47.946;20.540;2023-05-10T12:03:01;17.23;56.78
67586;SHT31;55785;47.946;20.540;2023-05-10T12:05:26;17.18;56.84
67586;SHT31;55785;47.946;20.540;2023-05-10T12:07:52;17.21;58.67
67586;SHT31;55785;47.946;20.540;2023-05-10T12:10:25;17.14;55.38
67586;SHT31;55785;47.946;20.540;2023-05-10T12:12:52;17.11;55.80
67586;SHT31;55785;47.946;20.540;2023-05-10T12:15:23;17.09;55.20
67586;SHT31;55785;47.946;20.540;2023-05-10T12:17:49;17.23;60.02
67586;SHT31;55785;47.946;20.540;2023-05-10T12:20:16;17.39;55.08
67586;SHT31;55785;47.946;20.540;2023-05-10T12:22:55;17.42;54.19
67586;SHT31;55785;47.946;20.540;2023-05-10T12:25:23;17.45;56.39
67586;SHT31;55785;47.946;20.540;2023-05-10T12:27:54;17.64;58.92
67586;SHT31;55785;47.946;20.540;2023-05-10T12:30:24;17.62;55.72
67586;SHT31;55785;47.946;20.540;2023-05-10T12:32:50;17.69;56.32
67586;SHT31;55785;47.946;20.540;2023-05-10T12:35:16;17.65;54.29
67586;SHT31;55785;47.946;20.540;2023-05-10T12:37:42;17.59;54.61
67586;SHT31;55785;47.946;20.540;2023-05-10T12:40:09;17.61;51.92
67586;SHT31;55785;47.946;20.540;2023-05-10T12:42:35;17.67;55.52
67586;SHT31;55785;47.946;20.540;2023-05-10T12:45:01;17.51;54.66
67586;SHT31;55785;47.946;20.540;2023-05-10T12:47:26;17.47;54.84
67586;SHT31;55785;47.946;20.540;2023-05-10T12:49:51;17.34;54.39
67586;SHT31;55785;47.946;20.540;2023-05-10T12:52:17;17.42;54.61
67586;SHT31;55785;47.946;20.540;2023-05-10T12:54:42;17.35;56.66
67586;SHT31;55785;47.946;20.540;2023-05-10T12:57:07;17.52;54.73
67586;SHT31;55785;47.946;20.540;2023-05-10T12:59:33;17.47;53.90
67586;SHT31;55785;47.946;20.540;2023-05-10T13:01:58;17.45;54.82
67586;SHT31;55785;47.946;20.540;2023-05-10T13:04:23;17.62;57.65
67586;SHT31;55785;47.946;20.540;2023-05-10T13:06:49;17.49;51.86
67586;SHT31;55785;47.946;20.540;2023-05-10T13:09:14;17.48;52.26
67586;SHT31;55785;47.946;20.540;2023-05-10T13:11:39;17.41;50.72
67586;SHT31;55785;47.946;20.540;2023-05-10T13:14:05;17.42;54.09
67586;SHT31;55785;47.946;20.540;2023-05-10T13:16:31;17.44;52.92
67586;SHT31;55785;47.946;20.540;2023-05-10T13:18:56;17.62;51.54
67586;SHT31;55785;47.946;20.540;2023-05-10T13:21:21;17.64;51.24
67586;SHT31;55785;47.946;20.540;2023-05-10T13:23:47;17.61;50.94
67586;SHT31;55785;47.946;20.540;2023-05-10T13:26:12;17.61;50.58
67586;SHT31;55785;47.946;20.540;2023-05-10T13:28:37;17.58;50.34
67586;SHT31;55785;47.946;20.540;2023-05-10T13:31:03;17.68;50.57
67586;SHT31;55785;47.946;20.540;2023-05-10T13:33:28;17.74;51.43
67586;SHT31;55785;47.946;20.540;2023-05-10T13:35:53;17.74;48.55
67586;SHT31;55785;47.946;20.540;2023-05-10T13:38:19;17.57;50.43
67586;SHT31;55785;47.946;20.540;2023-05-10T13:40:44;17.45;51.22
67586;SHT31;55785;47.946;20.540;2023-05-10T13:43:09;17.48;53.80
67586;SHT31;55785;47.946;20.540;2023-05-10T13:45:35;17.48;52.56
67586;SHT31;55785;47.946;20.540;2023-05-10T13:48:00;17.47;52.68
67586;SHT31;55785;47.946;20.540;2023-05-10T13:50:25;17.62;49.89
67586;SHT31;55785;47.946;20.540;2023-05-10T13:52:51;17.71;49.34
67586;SHT31;55785;47.946;20.540;2023-05-10T13:55:16;17.69;46.08
67586;SHT31;55785;47.946;20.540;2023-05-10T13:57:41;17.82;49.46
67586;SHT31;55785;47.946;20.540;2023-05-10T14:00:07;17.85;47.27
67586;SHT31;55785;47.946;20.540;2023-05-10T14:02:32;17.89;48.17
67586;SHT31;55785;47.946;20.540;2023-05-10T14:04:58;17.83;48.48
67586;SHT31;55785;47.946;20.540;2023-05-10T14:07:23;17.82;47.91
67586;SHT31;55785;47.946;20.540;2023-05-10T14:09:48;17.82;49.35
67586;SHT31;55785;47.946;20.540;2023-05-10T14:12:14;17.79;49.41
67586;SHT31;55785;47.946;20.540;2023-05-10T14:14:39;17.82;47.12
67586;SHT31;55785;47.946;20.540;2023-05-10T14:17:04;18.07;55.54
67586;SHT31;55785;47.946;20.540;2023-05-10T14:19:30;18.12;48.76
67586;SHT31;55785;47.946;20.540;2023-05-10T14:21:55;18.09;51.41
67586;SHT31;55785;47.946;20.540;2023-05-10T14:24:20;17.99;47.86
67586;SHT31;55785;47.946;20.540;2023-05-10T14:26:46;18.06;49.43
67586;SHT31;55785;47.946;20.540;2023-05-10T14:29:11;18.07;49.24
67586;SHT31;55785;47.946;20.540;2023-05-10T14:31:36;18.00;48.09
67586;SHT31;55785;47.946;20.540;2023-05-10T14:34:02;17.81;47.29
67586;SHT31;55785;47.946;20.540;2023-05-10T14:36:27;17.78;48.28
67586;SHT31;55785;47.946;20.540;2023-05-10T14:38:52;17.83;49.19
67586;SHT31;55785;47.946;20.540;2023-05-10T14:41:18;17.76;48.19
67586;SHT31;55785;47.946;20.540;2023-05-10T14:43:43;17.97;47.72
67586;SHT31;55785;47.946;20.540;2023-05-10T14:46:08;18.34;46.78
67586;SHT31;55785;47.946;20.540;2023-05-10T14:48:34;18.85;46.77
67586;SHT31;55785;47.946;20.540;2023-05-10T14:50:59;18.61;44.85
67586;SHT31;55785;47.946;20.540;2023-05-10T14:53:24;18.45;46.03
67586;SHT31;55785;47.946;20.540;2023-05-10T14:55:50;18.09;46.32
67586;SHT31;55785;47.946;20.540;2023-05-10T14:58:15;18.30;44.34
67586;SHT31;55785;47.946;20.540;2023-05-10T15:00:40;18.48;45.89
67586;SHT31;55785;47.946;20.540;2023-05-10T15:03:06;18.85;44.31
67586;SHT31;55785;47.946;20.540;2023-05-10T15:05:31;18.75;44.67
67586;SHT31;55785;47.946;20.540;2023-05-10T15:07:56;18.43;48.85
67586;SHT31;55785;47.946;20.540;2023-05-10T15:10:22;18.55;50.28
67586;SHT31;55785;47.946;20.540;2023-05-10T15:12:47;18.65;49.14
67586;SHT31;55785;47.946;20.540;2023-05-10T15:15:12;18.37;46.87
67586;SHT31;55785;47.946;20.540;2023-05-10T15:17:38;18.00;46.19
67586;SHT31;55785;47.946;20.540;2023-05-10T15:20:03;18.13;46.39
67586;SHT31;55785;47.946;20.540;2023-05-10T15:22:29;18.43;45.34
67586;SHT31;55785;47.946;20.540;2023-05-10T15:24:55;18.50;47.89
67586;SHT31;55785;47.946;20.540;2023-05-10T15:27:20;18.20;45.81
67586;SHT31;55785;47.946;20.540;2023-05-10T15:29:45;17.78;44.84
67586;SHT31;55785;47.946;20.540;2023-05-10T15:32:11;17.47;44.99
67586;SHT31;55785;47.946;20.540;2023-05-10T15:34:36;17.39;44.99
67586;SHT31;55785;47.946;20.540;2023-05-10T15:37:01;17.16;45.28
67586;SHT31;55785;47.946;20.540;2023-05-10T15:39:27;17.00;46.62
67586;SHT31;55785;47.946;20.540;2023-05-10T15:41:52;16.89;48.82